sensor_id;sensor_type;location;lat;lon;timestamp;temperature;humidity
16032;DHT22;8120;48.308;8.914;2022-08-21T00:01:51;11.80;99.90
16032;DHT22;8120;48.308;8.914;2022-08-21T00:04:22;11.80;99.90
16032;DHT22;8120;48.308;8.914;2022-08-21T00:06:56;11.70;99.90
16032;DHT22;8120;48.308;8.914;2022-08-21T00:09:24;11.70;99.90
16032;DHT22;8120;48.308;8.914;2022-08-21T00:11:52;11.70;99.90
16032;DHT22;8120;48.308;8.914;2022-08-21T00:14:20;11.80;99.90
16032;DHT22;8120;48.308;8.914;2022-08-21T00:16:47;11.80;99.90
16032;DHT22;8120;48.308;8.914;2022-08-21T00:19:15;11.80;99.90
16032;DHT22;8120;48.308;8.914;2022-08-21T00:21:45;11.60;99.90
16032;DHT22;8120;48.308;8.914;2022-08-21T00:24:15;11.50;99.90
16032;DHT22;8120;48.308;8.914;2022-08-21T00:26:42;11.40;99.90
16032;DHT22;8120;48.308;8.914;2022-08-21T00:29:10;11.40;99.90
16032;DHT22;8120;48.308;8.914;2022-08-21T00:31:38;11.30;99.90
16032;DHT22;8120;48.308;8.914;2022-08-21T00:34:07;11.30;99.90
16032;DHT22;8120;48.308;8.914;2022-08-21T00:36:36;11.30;99.90
16032;DHT22;8120;48.308;8.914;2022-08-21T00:39:06;11.30;99.90
16032;DHT22;8120;48.308;8.914;2022-08-21T00:41:37;11.20;99.90
16032;DHT22;8120;48.308;8.914;2022-08-21T00:44:06;11.10;99.90
16032;DHT22;8120;48.308;8.914;2022-08-21T00:46:34;11.00;99.90
16032;DHT22;8120;48.308;8.914;2022-08-21T00:49:03;10.90;99.90
16032;DHT22;8120;48.308;8.914;2022-08-21T00:51:36;10.90;99.90
16032;DHT22;8120;48.308;8.914;2022-08-21T00:54:07;10.80;99.90
16032;DHT22;8120;48.308;8.914;2022-08-21T00:56:45;10.80;99.90
16032;DHT22;8120;48.308;8.914;2022-08-21T00:59:14;10.80;99.90
16032;DHT22;8120;48.308;8.914;2022-08-21T01:01:43;10.80;99.90
16032;DHT22;8120;48.308;8.914;2022-08-21T01:04:11;10.70;99.90
16032;DHT22;8120;48.308;8.914;2022-08-21T01:06:39;10.70;99.90
16032;DHT22;8120;48.308;8.914;2022-08-21T01:09:08;10.70;99.90
16032;DHT22;8120;48.308;8.914;2022-08-21T01:11:37;10.70;99.90
16032;DHT22;8120;48.308;8.914;2022-08-21T01:14:05;10.90;99.90
16032;DHT22;8120;48.308;8.914;2022-08-21T01:16:33;10.80;99.90
16032;DHT22;8120;48.308;8.914;2022-08-21T01:19:01;10.80;99.90
16032;DHT22;8120;48.308;8.914;2022-08-21T01:21:30;10.70;99.90
16032;DHT22;8120;48.308;8.914;2022-08-21T01:24:00;10.60;99.90
16032;DHT22;8120;48.308;8.914;2022-08-21T01:26:30;10.60;99.90
16032;DHT22;8120;48.308;8.914;2022-08-21T01:29:05;10.50;99.90
16032;DHT22;8120;48.308;8.914;2022-08-21T01:31:34;10.50;99.90
16032;DHT22;8120;48.308;8.914;2022-08-21T01:34:04;10.50;99.90
16032;DHT22;8120;48.308;8.914;2022-08-21T01:36:34;10.40;99.90
16032;DHT22;8120;48.308;8.914;2022-08-21T01:39:03;10.40;99.90
16032;DHT22;8120;48.308;8.914;2022-08-21T01:41:31;10.40;99.90
16032;DHT22;8120;48.308;8.914;2022-08-21T01:43:59;10.40;99.90
16032;DHT22;8120;48.308;8.914;2022-08-21T01:46:27;10.40;99.90
16032;DHT22;8120;48.308;8.914;2022-08-21T01:48:55;10.30;99.90
16032;DHT22;8120;48.308;8.914;2022-08-21T01:51:23;10.20;99.90
16032;DHT22;8120;48.308;8.914;2022-08-21T01:53:52;10.20;99.90
16032;DHT22;8120;48.308;8.914;2022-08-21T01:56:20;10.10;99.90
16032;DHT22;8120;48.308;8.914;2022-08-21T01:58:49;10.00;99.90
16032;DHT22;8120;48.308;8.914;2022-08-21T02:01:17;10.00;99.90
16032;DHT22;8120;48.308;8.914;2022-08-21T02:03:45;9.90;99.90
16032;DHT22;8120;48.308;8.914;2022-08-21T02:06:15;9.90;99.90
16032;DHT22;8120;48.308;8.914;2022-08-21T02:08:45;10.00;99.90
16032;DHT22;8120;48.308;8.914;2022-08-21T02:11:14;10.10;99.90
16032;DHT22;8120;48.308;8.914;2022-08-21T02:13:42;10.20;99.90
16032;DHT22;8120;48.308;8.914;2022-08-21T02:16:10;10.20;99.90
16032;DHT22;8120;48.308;8.914;2022-08-21T02:18:45;10.20;99.90
16032;DHT22;8120;48.308;8.914;2022-08-21T02:21:13;10.10;99.90
16032;DHT22;8120;48.308;8.914;2022-08-21T02:23:41;10.10;99.90
16032;DHT22;8120;48.308;8.914;2022-08-21T02:26:09;10.10;99.90
16032;DHT22;8120;48.308;8.914;2022-08-21T02:28:39;9.90;99.90
16032;DHT22;8120;48.308;8.914;2022-08-21T02:31:07;9.80;99.90
16032;DHT22;8120;48.308;8.914;2022-08-21T02:33:34;9.80;99.90
16032;DHT22;8120;48.308;8.914;2022-08-21T02:36:03;9.80;99.90
16032;DHT22;8120;48.308;8.914;2022-08-21T02:38:33;9.80;99.90
16032;DHT22;8120;48.308;8.914;2022-08-21T02:41:04;9.80;99.90
16032;DHT22;8120;48.308;8.914;2022-08-21T02:43:32;10.20;99.90
16032;DHT22;8120;48.308;8.914;2022-08-21T02:46:03;10.20;99.90
16032;DHT22;8120;48.308;8.914;2022-08-21T02:48:33;10.00;99.90
16032;DHT22;8120;48.308;8.914;2022-08-21T02:51:03;9.90;99.90
16032;DHT22;8120;48.308;8.914;2022-08-21T02:53:32;9.80;99.90
16032;DHT22;8120;48.308;8.914;2022-08-21T02:56:03;9.70;99.90
16032;DHT22;8120;48.308;8.914;2022-08-21T02:58:38;9.60;99.90
16032;DHT22;8120;48.308;8.914;2022-08-21T03:01:09;9.60;99.90
16032;DHT22;8120;48.308;8.914;2022-08-21T03:03:38;9.50;99.90
16032;DHT22;8120;48.308;8.914;2022-08-21T03:06:08;9.50;99.90
16032;DHT22;8120;48.308;8.914;2022-08-21T03:08:37;9.50;99.90
16032;DHT22;8120;48.308;8.914;2022-08-21T03:11:05;9.50;99.90
16032;DHT22;8120;48.308;8.914;2022-08-21T03:13:36;9.50;99.90
16032;DHT22;8120;48.308;8.914;2022-08-21T03:16:08;9.50;99.90
16032;DHT22;8120;48.308;8.914;2022-08-21T03:18:36;9.40;99.90
16032;DHT22;8120;48.308;8.914;2022-08-21T03:21:06;9.40;99.90
16032;DHT22;8120;48.308;8.914;2022-08-21T03:23:34;9.50;99.90
16032;DHT22;8120;48.308;8.914;2022-08-21T03:26:03;9.50;99.90
16032;DHT22;8120;48.308;8.914;2022-08-21T03:28:31;9.40;99.90
16032;DHT22;8120;48.308;8.914;2022-08-21T03:30:58;9.40;99.90
16032;DHT22;8120;48.308;8.914;2022-08-21T03:33:28;9.40;99.90
16032;DHT22;8120;48.308;8.914;2022-08-21T03:36:01;9.50;99.90
16032;DHT22;8120;48.308;8.914;2022-08-21T03:38:30;9.50;99.90
16032;DHT22;8120;48.308;8.914;2022-08-21T03:40:59;9.50;99.90
16032;DHT22;8120;48.308;8.914;2022-08-21T03:43:28;9.50;99.90
16032;DHT22;8120;48.308;8.914;2022-08-21T03:45:58;9.50;99.90
16032;DHT22;8120;48.308;8.914;2022-08-21T03:48:27;9.60;99.90
16032;DHT22;8120;48.308;8.914;2022-08-21T03:50:55;9.60;99.90
16032;DHT22;8120;48.308;8.914;2022-08-21T03:53:23;9.50;99.90
16032;DHT22;8120;48.308;8.914;2022-08-21T03:55:51;9.60;99.90
16032;DHT22;8120;48.308;8.914;2022-08-21T03:58:22;9.60;99.90
16032;DHT22;8120;48.308;8.914;2022-08-21T04:00:53;9.50;99.90
16032;DHT22;8120;48.308;8.914;2022-08-21T04:03:22;9.40;99.90
16032;DHT22;8120;48.308;8.914;2022-08-21T04:05:51;9.30;99.90
16032;DHT22;8120;48.308;8.914;2022-08-21T04:08:19;9.30;99.90
16032;DHT22;8120;48.308;8.914;2022-08-21T04:10:50;9.20;99.90
16032;DHT22;8120;48.308;8.914;2022-08-21T04:13:18;9.20;99.90
16032;DHT22;8120;48.308;8.914;2022-08-21T04:15:46;9.10;99.90
16032;DHT22;8120;48.308;8.914;2022-08-21T04:18:14;9.10;99.90
16032;DHT22;8120;48.308;8.914;2022-08-21T04:20:43;9.10;99.90
16032;DHT22;8120;48.308;8.914;2022-08-21T04:23:22;9.20;99.90
16032;DHT22;8120;48.308;8.914;2022-08-21T04:25:51;9.20;99.90
16032;DHT22;8120;48.308;8.914;2022-08-21T04:28:19;9.20;99.90
16032;DHT22;8120;48.308;8.914;2022-08-21T04:30:49;9.20;99.90
16032;DHT22;8120;48.308;8.914;2022-08-21T04:33:18;9.20;99.90
16032;DHT22;8120;48.308;8.914;2022-08-21T04:35:46;9.50;99.90
16032;DHT22;8120;48.308;8.914;2022-08-21T04:38:14;9.60;99.90
16032;DHT22;8120;48.308;8.914;2022-08-21T04:40:44;9.40;99.90
16032;DHT22;8120;48.308;8.914;2022-08-21T04:43:12;9.40;99.90
16032;DHT22;8120;48.308;8.914;2022-08-21T04:45:42;9.30;99.90
16032;DHT22;8120;48.308;8.914;2022-08-21T04:48:11;9.50;99.90
16032;DHT22;8120;48.308;8.914;2022-08-21T04:50:45;9.80;99.90
16032;DHT22;8120;48.308;8.914;2022-08-21T04:53:18;9.90;99.90
16032;DHT22;8120;48.308;8.914;2022-08-21T04:55:49;10.20;99.40
16032;DHT22;8120;48.308;8.914;2022-08-21T04:58:19;10.50;98.10
16032;DHT22;8120;48.308;8.914;2022-08-21T05:00:47;10.80;97.80
16032;DHT22;8120;48.308;8.914;2022-08-21T05:03:16;11.10;97.50
16032;DHT22;8120;48.308;8.914;2022-08-21T05:05:45;11.50;97.60
16032;DHT22;8120;48.308;8.914;2022-08-21T05:08:16;11.80;93.00
16032;DHT22;8120;48.308;8.914;2022-08-21T05:10:45;12.00;86.30
16032;DHT22;8120;48.308;8.914;2022-08-21T05:13:15;12.00;86.30
16032;DHT22;8120;48.308;8.914;2022-08-21T05:15:43;12.10;85.50
16032;DHT22;8120;48.308;8.914;2022-08-21T05:18:11;12.40;85.60
16032;DHT22;8120;48.308;8.914;2022-08-21T05:20:39;12.60;84.10
16032;DHT22;8120;48.308;8.914;2022-08-21T05:23:07;12.90;86.10
16032;DHT22;8120;48.308;8.914;2022-08-21T05:25:36;13.30;86.30
16032;DHT22;8120;48.308;8.914;2022-08-21T05:28:04;13.80;79.90
16032;DHT22;8120;48.308;8.914;2022-08-21T05:30:35;13.20;84.40
16032;DHT22;8120;48.308;8.914;2022-08-21T05:33:05;13.50;83.30
16032;DHT22;8120;48.308;8.914;2022-08-21T05:35:33;13.30;83.90
16032;DHT22;8120;48.308;8.914;2022-08-21T05:38:02;13.30;84.90
16032;DHT22;8120;48.308;8.914;2022-08-21T05:40:31;13.40;84.40
16032;DHT22;8120;48.308;8.914;2022-08-21T05:42:59;13.70;84.40
16032;DHT22;8120;48.308;8.914;2022-08-21T05:45:30;14.30;81.80
16032;DHT22;8120;48.308;8.914;2022-08-21T05:48:12;15.10;77.40
16032;DHT22;8120;48.308;8.914;2022-08-21T05:50:40;15.70;74.40
16032;DHT22;8120;48.308;8.914;2022-08-21T05:53:09;15.40;76.30
16032;DHT22;8120;48.308;8.914;2022-08-21T05:55:38;16.00;74.00
16032;DHT22;8120;48.308;8.914;2022-08-21T05:58:11;16.00;72.10
16032;DHT22;8120;48.308;8.914;2022-08-21T06:00:41;15.50;74.00
16032;DHT22;8120;48.308;8.914;2022-08-21T06:03:14;15.20;76.40
16032;DHT22;8120;48.308;8.914;2022-08-21T06:05:44;15.10;76.00
16032;DHT22;8120;48.308;8.914;2022-08-21T06:08:13;15.50;76.60
16032;DHT22;8120;48.308;8.914;2022-08-21T06:10:41;15.90;73.70
16032;DHT22;8120;48.308;8.914;2022-08-21T06:13:09;15.00;77.70
16032;DHT22;8120;48.308;8.914;2022-08-21T06:15:37;15.00;79.60
16032;DHT22;8120;48.308;8.914;2022-08-21T06:18:05;15.90;77.00
16032;DHT22;8120;48.308;8.914;2022-08-21T06:20:35;16.50;72.70
16032;DHT22;8120;48.308;8.914;2022-08-21T06:23:03;16.70;72.10
16032;DHT22;8120;48.308;8.914;2022-08-21T06:25:31;16.70;72.80
16032;DHT22;8120;48.308;8.914;2022-08-21T06:28:03;16.80;70.40
16032;DHT22;8120;48.308;8.914;2022-08-21T06:30:32;16.60;72.10
16032;DHT22;8120;48.308;8.914;2022-08-21T06:33:00;15.90;74.60
16032;DHT22;8120;48.308;8.914;2022-08-21T06:35:29;16.10;76.10
16032;DHT22;8120;48.308;8.914;2022-08-21T06:37:58;16.60;73.00
16032;DHT22;8120;48.308;8.914;2022-08-21T06:40:27;16.70;73.00
16032;DHT22;8120;48.308;8.914;2022-08-21T06:42:56;17.30;72.70
16032;DHT22;8120;48.308;8.914;2022-08-21T06:45:25;17.20;71.70
16032;DHT22;8120;48.308;8.914;2022-08-21T06:47:58;17.20;71.90
16032;DHT22;8120;48.308;8.914;2022-08-21T06:50:26;17.40;70.90
16032;DHT22;8120;48.308;8.914;2022-08-21T06:53:00;17.60;70.10
16032;DHT22;8120;48.308;8.914;2022-08-21T06:55:28;17.70;70.30
16032;DHT22;8120;48.308;8.914;2022-08-21T06:57:57;17.70;70.30
16032;DHT22;8120;48.308;8.914;2022-08-21T07:00:25;18.20;68.30
16032;DHT22;8120;48.308;8.914;2022-08-21T07:02:53;18.00;71.00
16032;DHT22;8120;48.308;8.914;2022-08-21T07:05:22;18.00;70.70
16032;DHT22;8120;48.308;8.914;2022-08-21T07:07:49;17.80;71.60
16032;DHT22;8120;48.308;8.914;2022-08-21T07:10:19;18.10;71.30
16032;DHT22;8120;48.308;8.914;2022-08-21T07:12:48;18.40;69.60
16032;DHT22;8120;48.308;8.914;2022-08-21T07:15:27;18.80;67.00
16032;DHT22;8120;48.308;8.914;2022-08-21T07:17:56;19.30;66.10
16032;DHT22;8120;48.308;8.914;2022-08-21T07:20:24;20.00;62.90
16032;DHT22;8120;48.308;8.914;2022-08-21T07:22:53;20.10;61.80
16032;DHT22;8120;48.308;8.914;2022-08-21T07:25:22;19.80;63.00
16032;DHT22;8120;48.308;8.914;2022-08-21T07:27:50;19.80;65.70
16032;DHT22;8120;48.308;8.914;2022-08-21T07:30:18;19.80;63.30
16032;DHT22;8120;48.308;8.914;2022-08-21T07:32:46;19.60;65.60
16032;DHT22;8120;48.308;8.914;2022-08-21T07:35:15;20.50;62.50
16032;DHT22;8120;48.308;8.914;2022-08-21T07:37:43;20.90;60.40
16032;DHT22;8120;48.308;8.914;2022-08-21T07:40:12;20.00;63.90
16032;DHT22;8120;48.308;8.914;2022-08-21T07:42:43;19.30;65.40
16032;DHT22;8120;48.308;8.914;2022-08-21T07:45:13;19.50;66.50
16032;DHT22;8120;48.308;8.914;2022-08-21T07:47:41;19.70;59.20
16032;DHT22;8120;48.308;8.914;2022-08-21T07:50:09;20.00;61.10
16032;DHT22;8120;48.308;8.914;2022-08-21T07:52:38;19.90;61.10
16032;DHT22;8120;48.308;8.914;2022-08-21T07:55:08;19.90;60.30
16032;DHT22;8120;48.308;8.914;2022-08-21T07:57:36;20.70;56.90
16032;DHT22;8120;48.308;8.914;2022-08-21T08:00:09;20.60;55.70
16032;DHT22;8120;48.308;8.914;2022-08-21T08:02:37;20.90;56.90
16032;DHT22;8120;48.308;8.914;2022-08-21T08:05:08;21.30;56.30
16032;DHT22;8120;48.308;8.914;2022-08-21T08:07:38;21.60;55.50
16032;DHT22;8120;48.308;8.914;2022-08-21T08:10:08;21.80;52.70
16032;DHT22;8120;48.308;8.914;2022-08-21T08:12:38;21.60;54.00
16032;DHT22;8120;48.308;8.914;2022-08-21T08:15:12;21.00;54.20
16032;DHT22;8120;48.308;8.914;2022-08-21T08:17:40;21.40;54.70
16032;DHT22;8120;48.308;8.914;2022-08-21T08:20:09;22.30;51.50
16032;DHT22;8120;48.308;8.914;2022-08-21T08:22:38;22.60;50.10
16032;DHT22;8120;48.308;8.914;2022-08-21T08:25:09;22.90;51.00
16032;DHT22;8120;48.308;8.914;2022-08-21T08:27:37;22.60;51.40
16032;DHT22;8120;48.308;8.914;2022-08-21T08:30:10;22.70;50.20
16032;DHT22;8120;48.308;8.914;2022-08-21T08:32:39;22.00;53.50
16032;DHT22;8120;48.308;8.914;2022-08-21T08:35:07;23.10;51.80
16032;DHT22;8120;48.308;8.914;2022-08-21T08:37:39;22.90;49.60
16032;DHT22;8120;48.308;8.914;2022-08-21T08:40:11;22.70;49.20
16032;DHT22;8120;48.308;8.914;2022-08-21T08:42:40;23.40;49.20
16032;DHT22;8120;48.308;8.914;2022-08-21T08:45:12;23.50;47.90
16032;DHT22;8120;48.308;8.914;2022-08-21T08:47:47;23.90;46.70
16032;DHT22;8120;48.308;8.914;2022-08-21T08:50:18;24.20;45.40
16032;DHT22;8120;48.308;8.914;2022-08-21T08:52:49;23.40;46.90
16032;DHT22;8120;48.308;8.914;2022-08-21T08:55:22;22.60;49.40
16032;DHT22;8120;48.308;8.914;2022-08-21T08:57:53;23.20;49.40
16032;DHT22;8120;48.308;8.914;2022-08-21T09:00:24;23.50;48.00
16032;DHT22;8120;48.308;8.914;2022-08-21T09:02:54;23.80;48.00
16032;DHT22;8120;48.308;8.914;2022-08-21T09:05:25;24.10;47.40
16032;DHT22;8120;48.308;8.914;2022-08-21T09:08:20;24.30;48.00
16032;DHT22;8120;48.308;8.914;2022-08-21T09:10:59;24.30;46.40
16032;DHT22;8120;48.308;8.914;2022-08-21T09:13:38;23.10;45.60
16032;DHT22;8120;48.308;8.914;2022-08-21T09:16:15;23.10;49.00
16032;DHT22;8120;48.308;8.914;2022-08-21T09:18:52;24.00;46.90
16032;DHT22;8120;48.308;8.914;2022-08-21T09:21:27;24.00;46.10
16032;DHT22;8120;48.308;8.914;2022-08-21T09:24:01;24.20;45.70
16032;DHT22;8120;48.308;8.914;2022-08-21T09:26:47;24.70;43.80
16032;DHT22;8120;48.308;8.914;2022-08-21T09:29:20;24.00;44.80
16032;DHT22;8120;48.308;8.914;2022-08-21T09:31:51;22.40;49.80
16032;DHT22;8120;48.308;8.914;2022-08-21T09:34:25;21.80;48.50
16032;DHT22;8120;48.308;8.914;2022-08-21T09:36:54;23.00;48.30
16032;DHT22;8120;48.308;8.914;2022-08-21T09:39:25;23.90;46.50
16032;DHT22;8120;48.308;8.914;2022-08-21T09:42:03;24.10;46.50
16032;DHT22;8120;48.308;8.914;2022-08-21T09:44:45;24.30;45.10
16032;DHT22;8120;48.308;8.914;2022-08-21T09:47:18;24.80;43.80
16032;DHT22;8120;48.308;8.914;2022-08-21T09:49:52;24.10;43.50
16032;DHT22;8120;48.308;8.914;2022-08-21T09:52:22;23.90;44.20
16032;DHT22;8120;48.308;8.914;2022-08-21T09:54:54;24.40;44.60
16032;DHT22;8120;48.308;8.914;2022-08-21T09:57:25;24.20;42.90
16032;DHT22;8120;48.308;8.914;2022-08-21T10:00:29;23.80;43.10
16032;DHT22;8120;48.308;8.914;2022-08-21T10:03:15;23.10;47.50
16032;DHT22;8120;48.308;8.914;2022-08-21T10:05:57;23.80;45.40
16032;DHT22;8120;48.308;8.914;2022-08-21T10:08:27;23.60;44.10
16032;DHT22;8120;48.308;8.914;2022-08-21T10:11:02;22.80;46.50
16032;DHT22;8120;48.308;8.914;2022-08-21T10:13:41;23.10;45.10
16032;DHT22;8120;48.308;8.914;2022-08-21T10:16:24;23.40;45.30
16032;DHT22;8120;48.308;8.914;2022-08-21T10:19:05;24.50;43.20
16032;DHT22;8120;48.308;8.914;2022-08-21T10:21:42;24.90;44.90
16032;DHT22;8120;48.308;8.914;2022-08-21T10:24:23;24.50;43.40
16032;DHT22;8120;48.308;8.914;2022-08-21T10:27:05;23.70;43.80
16032;DHT22;8120;48.308;8.914;2022-08-21T10:29:45;23.80;46.10
16032;DHT22;8120;48.308;8.914;2022-08-21T10:32:27;23.60;44.70
16032;DHT22;8120;48.308;8.914;2022-08-21T10:35:08;23.80;44.30
16032;DHT22;8120;48.308;8.914;2022-08-21T10:37:46;24.70;43.50
16032;DHT22;8120;48.308;8.914;2022-08-21T10:40:21;25.10;42.80
16032;DHT22;8120;48.308;8.914;2022-08-21T10:43:04;25.00;42.30
16032;DHT22;8120;48.308;8.914;2022-08-21T10:45:48;25.00;43.00
16032;DHT22;8120;48.308;8.914;2022-08-21T10:48:26;24.80;42.90
16032;DHT22;8120;48.308;8.914;2022-08-21T10:51:04;24.40;45.50
16032;DHT22;8120;48.308;8.914;2022-08-21T10:53:50;23.40;43.90
16032;DHT22;8120;48.308;8.914;2022-08-21T10:56:23;23.80;44.50
16032;DHT22;8120;48.308;8.914;2022-08-21T10:59:02;24.20;44.50
16032;DHT22;8120;48.308;8.914;2022-08-21T11:01:39;24.80;43.80
16032;DHT22;8120;48.308;8.914;2022-08-21T11:04:13;25.10;42.10
16032;DHT22;8120;48.308;8.914;2022-08-21T11:06:48;25.50;41.30
16032;DHT22;8120;48.308;8.914;2022-08-21T11:09:19;25.80;41.10
16032;DHT22;8120;48.308;8.914;2022-08-21T11:11:52;25.30;41.00
16032;DHT22;8120;48.308;8.914;2022-08-21T11:14:41;25.00;42.30
16032;DHT22;8120;48.308;8.914;2022-08-21T11:17:20;25.50;42.10
16032;DHT22;8120;48.308;8.914;2022-08-21T11:19:53;25.80;40.90
16032;DHT22;8120;48.308;8.914;2022-08-21T11:22:28;25.70;41.50
16032;DHT22;8120;48.308;8.914;2022-08-21T11:25:03;25.70;41.10
16032;DHT22;8120;48.308;8.914;2022-08-21T11:27:38;25.10;41.30
16032;DHT22;8120;48.308;8.914;2022-08-21T11:30:08;25.20;41.30
16032;DHT22;8120;48.308;8.914;2022-08-21T11:32:51;25.00;41.70
16032;DHT22;8120;48.308;8.914;2022-08-21T11:35:30;25.20;41.40
16032;DHT22;8120;48.308;8.914;2022-08-21T11:38:13;25.40;41.20
16032;DHT22;8120;48.308;8.914;2022-08-21T11:41:02;24.90;41.50
16032;DHT22;8120;48.308;8.914;2022-08-21T11:43:37;24.90;42.30
16032;DHT22;8120;48.308;8.914;2022-08-21T11:46:17;24.90;40.80
16032;DHT22;8120;48.308;8.914;2022-08-21T11:48:55;24.90;42.70
16032;DHT22;8120;48.308;8.914;2022-08-21T11:51:31;24.60;42.00
16032;DHT22;8120;48.308;8.914;2022-08-21T11:54:07;24.60;42.60
16032;DHT22;8120;48.308;8.914;2022-08-21T11:56:37;24.70;42.90
16032;DHT22;8120;48.308;8.914;2022-08-21T11:59:12;24.70;41.00
16032;DHT22;8120;48.308;8.914;2022-08-21T12:01:44;24.60;41.40
16032;DHT22;8120;48.308;8.914;2022-08-21T12:04:21;25.10;41.20
16032;DHT22;8120;48.308;8.914;2022-08-21T12:06:51;25.10;41.00
16032;DHT22;8120;48.308;8.914;2022-08-21T12:09:34;25.60;40.80
16032;DHT22;8120;48.308;8.914;2022-08-21T12:12:06;26.10;40.30
16032;DHT22;8120;48.308;8.914;2022-08-21T12:14:41;26.10;40.00
16032;DHT22;8120;48.308;8.914;2022-08-21T12:17:18;26.30;39.20
16032;DHT22;8120;48.308;8.914;2022-08-21T12:19:57;26.50;38.80
16032;DHT22;8120;48.308;8.914;2022-08-21T12:22:36;26.20;38.90
16032;DHT22;8120;48.308;8.914;2022-08-21T12:25:11;25.80;40.40
16032;DHT22;8120;48.308;8.914;2022-08-21T12:27:49;26.00;40.00
16032;DHT22;8120;48.308;8.914;2022-08-21T12:30:23;25.90;37.80
16032;DHT22;8120;48.308;8.914;2022-08-21T12:33:02;25.10;39.80
16032;DHT22;8120;48.308;8.914;2022-08-21T12:35:36;24.60;40.00
16032;DHT22;8120;48.308;8.914;2022-08-21T12:38:09;24.10;41.00
16032;DHT22;8120;48.308;8.914;2022-08-21T12:40:47;23.80;41.70
16032;DHT22;8120;48.308;8.914;2022-08-21T12:43:20;24.10;42.30
16032;DHT22;8120;48.308;8.914;2022-08-21T12:45:50;24.60;40.70
16032;DHT22;8120;48.308;8.914;2022-08-21T12:48:22;24.90;41.70
16032;DHT22;8120;48.308;8.914;2022-08-21T12:50:52;24.80;41.00
16032;DHT22;8120;48.308;8.914;2022-08-21T12:53:28;24.90;40.80
16032;DHT22;8120;48.308;8.914;2022-08-21T12:56:02;24.90;40.80
16032;DHT22;8120;48.308;8.914;2022-08-21T12:58:31;24.80;40.50
16032;DHT22;8120;48.308;8.914;2022-08-21T13:01:02;24.90;40.10
16032;DHT22;8120;48.308;8.914;2022-08-21T13:03:31;25.00;39.60
16032;DHT22;8120;48.308;8.914;2022-08-21T13:06:03;25.30;39.30
16032;DHT22;8120;48.308;8.914;2022-08-21T13:08:33;25.60;37.80
16032;DHT22;8120;48.308;8.914;2022-08-21T13:11:10;25.90;37.00
16032;DHT22;8120;48.308;8.914;2022-08-21T13:13:42;25.60;39.40
16032;DHT22;8120;48.308;8.914;2022-08-21T13:16:20;26.00;37.40
16032;DHT22;8120;48.308;8.914;2022-08-21T13:18:56;25.60;37.10
16032;DHT22;8120;48.308;8.914;2022-08-21T13:21:29;25.60;37.90
16032;DHT22;8120;48.308;8.914;2022-08-21T13:24:12;25.80;38.30
16032;DHT22;8120;48.308;8.914;2022-08-21T13:27:03;25.40;36.00
16032;DHT22;8120;48.308;8.914;2022-08-21T13:29:33;25.20;37.40
16032;DHT22;8120;48.308;8.914;2022-08-21T13:32:05;25.60;36.60
16032;DHT22;8120;48.308;8.914;2022-08-21T13:34:36;25.90;35.80
16032;DHT22;8120;48.308;8.914;2022-08-21T13:37:06;26.40;36.20
16032;DHT22;8120;48.308;8.914;2022-08-21T13:39:35;26.20;36.00
16032;DHT22;8120;48.308;8.914;2022-08-21T13:42:10;25.90;35.80
16032;DHT22;8120;48.308;8.914;2022-08-21T13:44:42;25.50;38.10
16032;DHT22;8120;48.308;8.914;2022-08-21T13:47:12;25.20;39.50
16032;DHT22;8120;48.308;8.914;2022-08-21T13:49:43;24.90;40.20
16032;DHT22;8120;48.308;8.914;2022-08-21T13:52:16;24.60;38.80
16032;DHT22;8120;48.308;8.914;2022-08-21T13:54:43;24.60;39.90
16032;DHT22;8120;48.308;8.914;2022-08-21T13:57:25;25.30;38.00
16032;DHT22;8120;48.308;8.914;2022-08-21T14:00:10;25.40;37.90
16032;DHT22;8120;48.308;8.914;2022-08-21T14:02:41;25.60;36.90
16032;DHT22;8120;48.308;8.914;2022-08-21T14:05:15;25.80;38.90
16032;DHT22;8120;48.308;8.914;2022-08-21T14:07:44;25.80;40.60
16032;DHT22;8120;48.308;8.914;2022-08-21T14:10:16;25.90;39.90
16032;DHT22;8120;48.308;8.914;2022-08-21T14:12:48;25.70;39.40
16032;DHT22;8120;48.308;8.914;2022-08-21T14:15:23;25.50;39.20
16032;DHT22;8120;48.308;8.914;2022-08-21T14:17:51;25.70;38.00
16032;DHT22;8120;48.308;8.914;2022-08-21T14:20:28;25.50;40.70
16032;DHT22;8120;48.308;8.914;2022-08-21T14:22:57;25.50;40.20
16032;DHT22;8120;48.308;8.914;2022-08-21T14:25:31;25.60;39.20
16032;DHT22;8120;48.308;8.914;2022-08-21T14:28:22;25.80;39.10
16032;DHT22;8120;48.308;8.914;2022-08-21T14:30:55;25.60;38.60
16032;DHT22;8120;48.308;8.914;2022-08-21T14:33:26;25.60;38.80
16032;DHT22;8120;48.308;8.914;2022-08-21T14:35:54;25.60;38.80
16032;DHT22;8120;48.308;8.914;2022-08-21T14:38:25;25.40;39.30
16032;DHT22;8120;48.308;8.914;2022-08-21T14:40:55;25.00;40.70
16032;DHT22;8120;48.308;8.914;2022-08-21T14:43:26;24.90;39.60
16032;DHT22;8120;48.308;8.914;2022-08-21T14:45:55;25.10;39.80
16032;DHT22;8120;48.308;8.914;2022-08-21T14:48:23;25.30;39.20
16032;DHT22;8120;48.308;8.914;2022-08-21T14:50:51;25.00;39.90
16032;DHT22;8120;48.308;8.914;2022-08-21T14:53:25;24.60;40.30
16032;DHT22;8120;48.308;8.914;2022-08-21T14:55:53;24.30;40.50
16032;DHT22;8120;48.308;8.914;2022-08-21T14:58:38;24.10;40.60
16032;DHT22;8120;48.308;8.914;2022-08-21T15:01:08;23.90;40.60
16032;DHT22;8120;48.308;8.914;2022-08-21T15:03:37;23.80;40.40
16032;DHT22;8120;48.308;8.914;2022-08-21T15:06:06;23.90;40.90
16032;DHT22;8120;48.308;8.914;2022-08-21T15:08:34;24.30;39.30
16032;DHT22;8120;48.308;8.914;2022-08-21T15:11:03;24.40;39.40
16032;DHT22;8120;48.308;8.914;2022-08-21T15:13:41;24.80;38.50
16032;DHT22;8120;48.308;8.914;2022-08-21T15:16:10;24.80;37.20
16032;DHT22;8120;48.308;8.914;2022-08-21T15:18:39;24.70;37.50
16032;DHT22;8120;48.308;8.914;2022-08-21T15:21:08;25.00;37.60
16032;DHT22;8120;48.308;8.914;2022-08-21T15:23:36;25.40;37.20
16032;DHT22;8120;48.308;8.914;2022-08-21T15:26:09;25.40;37.70
16032;DHT22;8120;48.308;8.914;2022-08-21T15:28:38;25.40;37.20
16032;DHT22;8120;48.308;8.914;2022-08-21T15:31:07;25.10;36.60
16032;DHT22;8120;48.308;8.914;2022-08-21T15:33:36;25.10;36.80
16032;DHT22;8120;48.308;8.914;2022-08-21T15:36:04;25.10;37.30
16032;DHT22;8120;48.308;8.914;2022-08-21T15:38:31;25.10;37.50
16032;DHT22;8120;48.308;8.914;2022-08-21T15:41:01;25.20;37.50
16032;DHT22;8120;48.308;8.914;2022-08-21T15:43:31;25.40;35.50
16032;DHT22;8120;48.308;8.914;2022-08-21T15:46:01;25.30;35.00
16032;DHT22;8120;48.308;8.914;2022-08-21T15:48:30;25.30;35.50
16032;DHT22;8120;48.308;8.914;2022-08-21T15:50:58;25.30;36.20
16032;DHT22;8120;48.308;8.914;2022-08-21T15:53:26;25.20;34.50
16032;DHT22;8120;48.308;8.914;2022-08-21T15:55:54;25.30;34.80
16032;DHT22;8120;48.308;8.914;2022-08-21T15:58:22;25.40;31.90
16032;DHT22;8120;48.308;8.914;2022-08-21T16:00:50;25.30;31.50
16032;DHT22;8120;48.308;8.914;2022-08-21T16:03:18;25.20;32.40
16032;DHT22;8120;48.308;8.914;2022-08-21T16:05:49;24.90;32.50
16032;DHT22;8120;48.308;8.914;2022-08-21T16:08:19;24.80;32.30
16032;DHT22;8120;48.308;8.914;2022-08-21T16:10:47;24.90;32.00
16032;DHT22;8120;48.308;8.914;2022-08-21T16:13:20;25.00;31.70
16032;DHT22;8120;48.308;8.914;2022-08-21T16:15:51;25.00;31.30